Current Conditions
Clear
Conditions



Pressure
1022.92 (hPa) - 30.21 (inHG)
Visibility

10.0 (km) - 6.2 (miles)
Temperature
17  °C
Temperature
10  °C
Dewpoint
64  %
 Humidity
Wind Speed
27  km/h
15  kts
17  mph
7.6  m/s
Wind Direction
N
45°
E
90°
135°
S
180°
225°
W
270°
315°
 190°

Due South
Airport Data
YWHA
Whyalla Airport
Metar :YWHA 030016Z AUTO 19015KT 9999 // NCD 17/10 Q1023
Fri 3rd December 10:46 am
Raw Metar Info
Raw METAR is the most common format in the world for the transmission of observational weather data. It is highly standardized through the International Civil Aviation Organization (ICAO), which allows it to be understood throughout most of the world.
API Info
Data Provided by
https://www.checkwx.com/weather/YWHA

Aviation Weather providing METAR, TAF, AIRMET, SIGMET and OUTLOOK Weather Reports
© Info
CSS/SVG/PHP scripts were developed by weather34.com for use in the weather34 template © 2015-2021

Guide Info provided by Metar-Wikipedia